Time;durP1;ratioP1;P1;durP2;ratioP2;P2;SDS_P1;SDS_P2;PMS_P1;PMS_P2;Temp;Humidity;BMP_temperature;BMP_pressure;BME280_temperature;BME280_humidity;BME280_pressure;Samples;Min_cycle;Max_cycle;Signal;HPM_P1;HPM_P2
2022/09/29 00:00:57;;;;;;;3.97;1.75;;;;;;;;;;5068117;28;20101;-62
2022/09/29 00:03:24;;;;;;;3.45;1.73;;;;;;;;;;5045625;28;20079;-55
2022/09/29 00:05:51;;;;;;;3.33;1.52;;;;;;;;;;5048281;28;20049;-59
2022/09/29 00:08:18;;;;;;;3.97;1.70;;;;;;;;;;5040826;28;20056;-60
2022/09/29 00:10:47;;;;;;;4.88;1.60;;;;;;;;;;5065616;28;20106;-56
2022/09/29 00:13:14;;;;;;;5.57;1.75;;;;;;;;;;5073053;28;20041;-65
2022/09/29 00:15:40;;;;;;;3.63;1.70;;;;;;;;;;5069353;28;20052;-58
2022/09/29 00:18:08;;;;;;;4.28;1.90;;;;;;;;;;5062541;28;20125;-58
2022/09/29 00:20:35;;;;;;;4.28;1.80;;;;;;;;;;5069209;28;20109;-53
2022/09/29 00:23:01;;;;;;;4.70;1.75;;;;;;;;;;5062821;28;20048;-55
2022/09/29 00:25:28;;;;;;;4.43;1.75;;;;;;;;;;5066985;28;20053;-63
2022/09/29 00:27:56;;;;;;;3.22;1.60;;;;;;;;;;5057303;28;20047;-58
2022/09/29 00:30:23;;;;;;;3.53;1.50;;;;;;;;;;5063872;28;20048;-62
2022/09/29 00:32:49;;;;;;;4.88;1.80;;;;;;;;;;5060482;28;20068;-59
2022/09/29 00:35:17;;;;;;;3.80;1.80;;;;;;;;;;5066868;28;20048;-56
2022/09/29 00:37:43;;;;;;;4.47;1.63;;;;;;;;;;5067385;28;20143;-57
2022/09/29 00:40:11;;;;;;;3.65;1.58;;;;;;;;;;5062762;28;20059;-55
2022/09/29 00:42:37;;;;;;;3.90;1.77;;;;;;;;;;5066871;28;20090;-58
2022/09/29 00:45:12;;;;;;;3.80;1.92;;;;;;;;;;5060022;28;20129;-62
2022/09/29 00:47:41;;;;;;;4.78;1.63;;;;;;;;;;5066602;28;20058;-62
2022/09/29 00:50:11;;;;;;;3.13;1.40;;;;;;;;;;5045270;28;20063;-60
2022/09/29 00:52:41;;;;;;;4.00;1.70;;;;;;;;;;5046729;28;20132;-55
2022/09/29 00:55:10;;;;;;;4.78;1.80;;;;;;;;;;5071403;28;20058;-61
2022/09/29 00:57:38;;;;;;;4.75;1.67;;;;;;;;;;5066481;28;20063;-56
2022/09/29 01:00:09;;;;;;;6.22;2.00;;;;;;;;;;5047544;28;20261;-56
2022/09/29 01:02:37;;;;;;;3.28;1.52;;;;;;;;;;5062670;28;20060;-53
2022/09/29 01:05:06;;;;;;;4.10;1.65;;;;;;;;;;5049841;28;20049;-59
2022/09/29 01:07:33;;;;;;;4.32;1.55;;;;;;;;;;5059317;28;20137;-55
2022/09/29 01:10:00;;;;;;;3.88;1.60;;;;;;;;;;5059650;28;20060;-59
2022/09/29 01:12:27;;;;;;;3.22;1.33;;;;;;;;;;5065927;28;20061;-55
2022/09/29 01:14:54;;;;;;;3.30;1.50;;;;;;;;;;5054241;28;20056;-58
2022/09/29 01:17:23;;;;;;;3.78;1.60;;;;;;;;;;5062335;28;20057;-62
2022/09/29 01:19:56;;;;;;;4.78;1.50;;;;;;;;;;5043287;28;20052;-65
2022/09/29 01:22:34;;;;;;;3.13;1.73;;;;;;;;;;5064281;28;20116;-56
2022/09/29 01:25:11;;;;;;;4.13;1.67;;;;;;;;;;5058549;28;20064;-55
2022/09/29 01:27:58;;;;;;;4.03;1.77;;;;;;;;;;5068628;28;20088;-58
2022/09/29 01:30:29;;;;;;;3.58;1.50;;;;;;;;;;5063608;28;20076;-59
2022/09/29 01:33:09;;;;;;;3.33;1.50;;;;;;;;;;5068592;28;20052;-62
2022/09/29 01:35:40;;;;;;;3.33;1.40;;;;;;;;;;5058350;28;20087;-55
2022/09/29 01:38:14;;;;;;;5.93;1.90;;;;;;;;;;5064983;28;20053;-57
2022/09/29 01:40:45;;;;;;;3.78;1.70;;;;;;;;;;5062823;28;20049;-60
2022/09/29 01:43:16;;;;;;;3.00;1.40;;;;;;;;;;5062984;28;20063;-59
2022/09/29 01:45:46;;;;;;;3.67;1.30;;;;;;;;;;5057336;28;20852;-61
2022/09/29 01:48:17;;;;;;;3.92;1.65;;;;;;;;;;5064092;28;20057;-64
2022/09/29 01:50:46;;;;;;;3.22;1.55;;;;;;;;;;5057431;28;20045;-60
2022/09/29 01:53:16;;;;;;;2.78;1.33;;;;;;;;;;5065429;28;20059;-54
2022/09/29 01:55:45;;;;;;;2.65;1.48;;;;;;;;;;5065657;28;20053;-58
2022/09/29 01:58:11;;;;;;;;;;;;;;;;;;5042616;28;20116;-61
2022/09/29 02:00:41;;;;;;;2.90;1.30;;;;;;;;;;5045951;28;19925;-62
2022/09/29 02:03:10;;;;;;;3.17;1.40;;;;;;;;;;5074452;28;20056;-53
2022/09/29 02:05:39;;;;;;;2.42;1.40;;;;;;;;;;5065985;28;20106;-51
2022/09/29 02:08:09;;;;;;;3.15;1.40;;;;;;;;;;5061041;28;20063;-54
2022/09/29 02:10:38;;;;;;;4.57;1.60;;;;;;;;;;5066711;28;20052;-58
2022/09/29 02:13:06;;;;;;;3.50;1.52;;;;;;;;;;5061486;28;20055;-51
2022/09/29 02:15:35;;;;;;;3.08;1.40;;;;;;;;;;5066098;28;20058;-52
2022/09/29 02:18:01;;;;;;;;;;;;;;;;;;5060160;28;20063;-54
2022/09/29 02:20:27;;;;;;;2.30;1.40;;;;;;;;;;5065954;28;19928;-56
2022/09/29 02:22:59;;;;;;;1.77;1.30;;;;;;;;;;5059362;28;20052;-55
2022/09/29 02:25:25;;;;;;;3.03;1.25;;;;;;;;;;5079036;28;20052;-58
2022/09/29 02:27:52;;;;;;;2.53;1.42;;;;;;;;;;5046795;28;20094;-57
2022/09/29 02:30:20;;;;;;;3.88;1.60;;;;;;;;;;5066116;28;20058;-52
2022/09/29 02:32:48;;;;;;;3.55;1.60;;;;;;;;;;5060764;28;20068;-52
2022/09/29 02:35:15;;;;;;;2.67;1.40;;;;;;;;;;5067978;28;20046;-51
2022/09/29 02:37:47;;;;;;;3.42;1.48;;;;;;;;;;5062004;28;20052;-54
2022/09/29 02:40:26;;;;;;;2.42;1.33;;;;;;;;;;5067397;28;20067;-56
2022/09/29 02:43:03;;;;;;;4.32;1.80;;;;;;;;;;5057762;28;20063;-52
2022/09/29 02:45:36;;;;;;;5.10;1.45;;;;;;;;;;5043778;28;20057;-57
2022/09/29 02:48:11;;;;;;;3.22;1.50;;;;;;;;;;5057913;28;20061;-54
2022/09/29 02:50:57;;;;;;;2.55;1.38;;;;;;;;;;5064857;28;20056;-53
2022/09/29 02:53:32;;;;;;;2.53;1.50;;;;;;;;;;5056200;28;20048;-63
2022/09/29 02:56:04;;;;;;;3.35;1.45;;;;;;;;;;5061592;28;20053;-52
2022/09/29 02:58:35;;;;;;;3.53;1.60;;;;;;;;;;5073303;28;20064;-58
2022/09/29 03:01:02;;;;;;;2.90;1.67;;;;;;;;;;5065160;28;20044;-53
2022/09/29 03:03:29;;;;;;;3.37;1.67;;;;;;;;;;5060000;28;20060;-56
2022/09/29 03:05:56;;;;;;;3.72;1.58;;;;;;;;;;5043094;28;20060;-59
2022/09/29 03:08:22;;;;;;;3.95;1.70;;;;;;;;;;5044819;28;20107;-51
2022/09/29 03:10:49;;;;;;;3.67;1.70;;;;;;;;;;5073757;28;20056;-56
2022/09/29 03:13:17;;;;;;;6.85;2.10;;;;;;;;;;5064943;28;20064;-55
2022/09/29 03:15:44;;;;;;;5.07;2.30;;;;;;;;;;5042712;28;20052;-57
2022/09/29 03:18:13;;;;;;;3.63;1.70;;;;;;;;;;5044927;28;20060;-58
2022/09/29 03:20:40;;;;;;;3.83;1.65;;;;;;;;;;5068548;28;20060;-60
2022/09/29 03:23:07;;;;;;;3.83;1.77;;;;;;;;;;5066812;28;20048;-62
2022/09/29 03:25:33;;;;;;;4.95;1.90;;;;;;;;;;5061697;28;20107;-58
2022/09/29 03:28:00;;;;;;;4.28;1.88;;;;;;;;;;5068440;28;20049;-58
2022/09/29 03:30:28;;;;;;;5.32;2.17;;;;;;;;;;5052050;28;20053;-60
2022/09/29 03:32:55;;;;;;;4.78;2.13;;;;;;;;;;5049599;28;20053;-63
2022/09/29 03:35:22;;;;;;;5.55;2.20;;;;;;;;;;5063781;28;20055;-58
2022/09/29 03:37:48;;;;;;;4.93;2.05;;;;;;;;;;5058518;28;20052;-65
2022/09/29 03:40:15;;;;;;;5.40;2.30;;;;;;;;;;5070717;28;20056;-56
2022/09/29 03:42:42;;;;;;;5.20;2.00;;;;;;;;;;5064231;28;20045;-62
2022/09/29 03:45:09;;;;;;;4.97;2.00;;;;;;;;;;5059251;28;20053;-65
2022/09/29 03:47:38;;;;;;;5.05;2.15;;;;;;;;;;5065356;28;20140;-63
2022/09/29 03:50:05;;;;;;;5.32;2.00;;;;;;;;;;5067243;28;20055;-60
2022/09/29 03:52:33;;;;;;;3.90;1.90;;;;;;;;;;5062333;28;20102;-56
2022/09/29 03:55:00;;;;;;;;;;;;;;;;;;5051961;28;20070;-61
2022/09/29 03:57:26;;;;;;;4.70;1.80;;;;;;;;;;5045723;28;19920;-60
2022/09/29 03:59:53;;;;;;;3.13;1.70;;;;;;;;;;5049274;28;20163;-55
2022/09/29 04:02:20;;;;;;;3.70;1.90;;;;;;;;;;5074886;28;20056;-60
2022/09/29 04:04:48;;;;;;;4.90;2.00;;;;;;;;;;5068677;28;20068;-55
2022/09/29 04:07:16;;;;;;;4.78;2.17;;;;;;;;;;5062254;28;20058;-63
2022/09/29 04:09:42;;;;;;;3.60;2.10;;;;;;;;;;5067392;28;20052;-54
2022/09/29 04:12:09;;;;;;;3.88;2.00;;;;;;;;;;5052667;28;20061;-59
2022/09/29 04:14:36;;;;;;;6.63;2.60;;;;;;;;;;5063804;28;20096;-65
2022/09/29 04:17:02;;;;;;;4.43;2.03;;;;;;;;;;5063314;28;20052;-49
2022/09/29 04:19:29;;;;;;;5.35;2.30;;;;;;;;;;5067510;28;20068;-55
2022/09/29 04:21:58;;;;;;;4.40;2.20;;;;;;;;;;5060897;28;20052;-52
2022/09/29 04:24:25;;;;;;;5.38;2.40;;;;;;;;;;5066950;28;20044;-58
2022/09/29 04:26:52;;;;;;;5.30;2.30;;;;;;;;;;5058761;28;20052;-50
2022/09/29 04:29:18;;;;;;;4.95;2.03;;;;;;;;;;5061252;28;20057;-53
2022/09/29 04:31:46;;;;;;;5.70;2.33;;;;;;;;;;5055210;28;20056;-56
2022/09/29 04:34:12;;;;;;;5.88;2.20;;;;;;;;;;5076289;28;20145;-58
2022/09/29 04:36:39;;;;;;;5.07;2.10;;;;;;;;;;5067079;28;20040;-50
2022/09/29 04:39:07;;;;;;;4.65;2.22;;;;;;;;;;5078099;28;20048;-61
2022/09/29 04:41:35;;;;;;;4.50;2.10;;;;;;;;;;5066775;28;20048;-61
2022/09/29 04:44:02;;;;;;;5.72;2.25;;;;;;;;;;5059926;28;20048;-64
2022/09/29 04:46:29;;;;;;;4.68;1.95;;;;;;;;;;5067593;28;20098;-59
2022/09/29 04:48:55;;;;;;;5.13;2.10;;;;;;;;;;5061556;28;20045;-65
2022/09/29 04:51:23;;;;;;;5.57;2.15;;;;;;;;;;5069463;28;20044;-63
2022/09/29 04:53:52;;;;;;;5.90;2.13;;;;;;;;;;5063520;28;20059;-66
2022/09/29 04:56:18;;;;;;;;;;;;;;;;;;5066856;28;20114;-53
2022/09/29 04:58:46;;;;;;;6.07;2.38;;;;;;;;;;5056080;28;19924;-56
2022/09/29 05:01:13;;;;;;;6.13;2.47;;;;;;;;;;5063570;28;20049;-65
2022/09/29 05:03:39;;;;;;;5.57;2.40;;;;;;;;;;5044463;28;20135;-62
2022/09/29 05:06:07;;;;;;;4.90;2.17;;;;;;;;;;5063405;28;20052;-65
2022/09/29 05:08:34;;;;;;;7.63;2.95;;;;;;;;;;5058123;28;20056;-60
2022/09/29 05:11:02;;;;;;;5.50;2.55;;;;;;;;;;5065330;28;20051;-57
2022/09/29 05:13:29;;;;;;;6.28;2.55;;;;;;;;;;5060916;28;20053;-62
2022/09/29 05:15:57;;;;;;;5.68;2.55;;;;;;;;;;5062583;28;20141;-57
2022/09/29 05:18:24;;;;;;;6.18;2.47;;;;;;;;;;5064679;28;20052;-63
2022/09/29 05:20:50;;;;;;;4.57;2.15;;;;;;;;;;5058219;28;20067;-65
2022/09/29 05:23:17;;;;;;;5.70;2.58;;;;;;;;;;5064795;28;20055;-64
2022/09/29 05:25:44;;;;;;;6.10;2.80;;;;;;;;;;5057541;28;20052;-55
2022/09/29 05:28:10;;;;;;;6.65;2.45;;;;;;;;;;5062251;28;20044;-58
2022/09/29 05:30:37;;;;;;;6.38;2.30;;;;;;;;;;5057554;28;20052;-58
2022/09/29 05:33:05;;;;;;;5.35;2.40;;;;;;;;;;5061109;28;20076;-62
2022/09/29 05:35:32;;;;;;;8.00;2.60;;;;;;;;;;5055271;28;20063;-58
2022/09/29 05:37:58;;;;;;;6.10;2.80;;;;;;;;;;5063592;28;20144;-58
2022/09/29 05:40:25;;;;;;;7.63;2.80;;;;;;;;;;5058424;28;20105;-59
2022/09/29 05:42:52;;;;;;;8.10;3.50;;;;;;;;;;5065576;28;20143;-56
2022/09/29 05:45:19;;;;;;;10.45;2.50;;;;;;;;;;5058471;28;20045;-61
2022/09/29 05:47:46;;;;;;;6.70;2.67;;;;;;;;;;5064870;28;20121;-60
2022/09/29 05:50:14;;;;;;;6.32;2.67;;;;;;;;;;5055758;28;20123;-57
2022/09/29 05:52:41;;;;;;;6.05;2.50;;;;;;;;;;5064930;28;20110;-55
2022/09/29 05:55:09;;;;;;;7.70;3.25;;;;;;;;;;5055384;28;20056;-62
2022/09/29 05:57:36;;;;;;;6.18;2.70;;;;;;;;;;5045092;28;20073;-54
2022/09/29 06:00:04;;;;;;;5.88;2.58;;;;;;;;;;5058347;28;20135;-53
2022/09/29 06:02:31;;;;;;;5.95;2.88;;;;;;;;;;5058633;28;20072;-54
2022/09/29 06:04:58;;;;;;;7.22;2.85;;;;;;;;;;5060989;28;20061;-65
2022/09/29 06:07:26;;;;;;;5.00;2.42;;;;;;;;;;5055369;28;20149;-55
2022/09/29 06:09:52;;;;;;;6.05;2.92;;;;;;;;;;5065750;28;20064;-65
2022/09/29 06:12:20;;;;;;;4.28;2.15;;;;;;;;;;5061069;28;20048;-61
2022/09/29 06:14:47;;;;;;;5.35;2.22;;;;;;;;;;5066425;28;20045;-61
2022/09/29 06:17:14;;;;;;;4.60;2.10;;;;;;;;;;5042059;28;20056;-61
2022/09/29 06:19:40;;;;;;;7.43;2.50;;;;;;;;;;5064802;28;20053;-59
2022/09/29 06:22:07;;;;;;;4.97;2.20;;;;;;;;;;5052519;28;20064;-63
2022/09/29 06:24:35;;;;;;;4.97;2.20;;;;;;;;;;5045189;28;20049;-62
2022/09/29 06:27:03;;;;;;;5.23;2.60;;;;;;;;;;5073832;28;20055;-59
2022/09/29 06:29:30;;;;;;;5.18;2.40;;;;;;;;;;5065331;28;20071;-62
2022/09/29 06:31:57;;;;;;;4.72;2.08;;;;;;;;;;5040566;28;20067;-63
2022/09/29 06:34:23;;;;;;;5.97;2.83;;;;;;;;;;5062125;28;20052;-65
2022/09/29 06:39:50;;;;;;;4.55;2.00;;;;;;;;;;4987737;28;20053;-55
2022/09/29 06:42:19;;;;;;;5.65;2.30;;;;;;;;;;5001969;28;20050;-58
2022/09/29 06:44:45;;;;;;;;;;;;;;;;;;5033918;28;20052;-62
2022/09/29 06:47:12;;;;;;;4.63;2.08;;;;;;;;;;5059903;28;19924;-64
2022/09/29 06:49:38;;;;;;;4.75;2.25;;;;;;;;;;5065189;28;20059;-63
2022/09/29 06:52:05;;;;;;;5.55;2.50;;;;;;;;;;5047455;28;20048;-61
2022/09/29 06:54:32;;;;;;;5.68;2.47;;;;;;;;;;5057859;28;20049;-61
2022/09/29 06:57:01;;;;;;;7.53;3.40;;;;;;;;;;5065019;27;20055;-62
2022/09/29 06:59:28;;;;;;;7.57;3.17;;;;;;;;;;5060755;28;20153;-65
2022/09/29 07:01:55;;;;;;;5.38;2.60;;;;;;;;;;5052695;28;20057;-65
2022/09/29 07:04:21;;;;;;;8.20;4.05;;;;;;;;;;5056798;28;20079;-58
2022/09/29 07:06:48;;;;;;;6.90;2.17;;;;;;;;;;5053056;28;20079;-63
2022/09/29 07:09:16;;;;;;;4.57;2.30;;;;;;;;;;5044382;28;20057;-54
2022/09/29 07:11:45;;;;;;;5.63;2.75;;;;;;;;;;5062079;28;20056;-64
2022/09/29 07:14:11;;;;;;;;;;;;;;;;;;5060671;28;20059;-64
2022/09/29 07:16:40;;;;;;;3.90;2.13;;;;;;;;;;5058814;28;19925;-66
2022/09/29 07:19:07;;;;;;;6.35;2.97;;;;;;;;;;5045314;28;20056;-64
2022/09/29 07:21:34;;;;;;;5.15;2.53;;;;;;;;;;5077798;28;20061;-64
2022/09/29 07:24:01;;;;;;;7.60;2.53;;;;;;;;;;5059542;28;20073;-66
2022/09/29 07:26:28;;;;;;;5.55;2.78;;;;;;;;;;5064987;28;20063;-53
2022/09/29 07:28:54;;;;;;;6.55;2.67;;;;;;;;;;5048519;28;20512;-56
2022/09/29 07:31:22;;;;;;;5.53;2.53;;;;;;;;;;5065185;28;20053;-61
2022/09/29 07:33:51;;;;;;;6.00;2.90;;;;;;;;;;5048436;28;20048;-52
2022/09/29 07:36:19;;;;;;;6.18;3.13;;;;;;;;;;5061439;28;20426;-60
2022/09/29 07:38:46;;;;;;;6.68;2.85;;;;;;;;;;5057335;28;20052;-61
2022/09/29 07:41:13;;;;;;;6.32;2.85;;;;;;;;;;5075521;28;20061;-53
2022/09/29 07:43:42;;;;;;;9.68;4.25;;;;;;;;;;5068150;28;20055;-60
2022/09/29 07:46:09;;;;;;;9.82;4.57;;;;;;;;;;5053512;28;20052;-64
2022/09/29 07:48:36;;;;;;;6.85;3.40;;;;;;;;;;5047709;28;20053;-61
2022/09/29 07:51:05;;;;;;;7.93;3.10;;;;;;;;;;5049285;28;20147;-64
2022/09/29 07:53:33;;;;;;;6.32;3.03;;;;;;;;;;5067585;28;20053;-62
2022/09/29 07:56:03;;;;;;;7.25;3.55;;;;;;;;;;5060480;28;20059;-63
2022/09/29 07:58:31;;;;;;;6.53;2.67;;;;;;;;;;5067478;28;20052;-63
2022/09/29 08:00:57;;;;;;;7.57;2.97;;;;;;;;;;5056677;28;20045;-64
2022/09/29 08:03:25;;;;;;;8.85;3.33;;;;;;;;;;5048185;28;20049;-65
2022/09/29 08:05:51;;;;;;;10.13;4.40;;;;;;;;;;5046145;28;20045;-60
2022/09/29 08:08:19;;;;;;;6.88;2.92;;;;;;;;;;5067571;28;20045;-61
2022/09/29 08:10:46;;;;;;;14.18;6.70;;;;;;;;;;5059455;28;20056;-60
2022/09/29 08:13:13;;;;;;;8.80;3.45;;;;;;;;;;5064593;28;20045;-56
2022/09/29 08:15:39;;;;;;;14.98;6.85;;;;;;;;;;5043230;28;20057;-59
2022/09/29 08:18:06;;;;;;;8.30;3.85;;;;;;;;;;5047046;28;20068;-59
2022/09/29 08:20:34;;;;;;;8.07;3.65;;;;;;;;;;5064237;28;20056;-58
2022/09/29 08:23:02;;;;;;;8.13;3.80;;;;;;;;;;5060881;28;20076;-63
2022/09/29 08:25:30;;;;;;;7.40;3.80;;;;;;;;;;5067392;28;20044;-60
2022/09/29 08:27:57;;;;;;;8.40;3.85;;;;;;;;;;5057259;28;20059;-54
2022/09/29 08:30:23;;;;;;;8.50;4.68;;;;;;;;;;5067521;28;20065;-63
2022/09/29 08:32:53;;;;;;;9.85;4.65;;;;;;;;;;5043049;28;20053;-57
2022/09/29 08:35:20;;;;;;;10.32;4.18;;;;;;;;;;5063935;28;20071;-62
2022/09/29 08:37:47;;;;;;;18.73;9.10;;;;;;;;;;5073913;28;20068;-58
2022/09/29 08:40:14;;;;;;;11.00;5.53;;;;;;;;;;5068520;28;20068;-63
2022/09/29 08:42:47;;;;;;;9.63;4.78;;;;;;;;;;5044386;28;20056;-59
2022/09/29 08:45:17;;;;;;;10.25;5.00;;;;;;;;;;5063752;28;20136;-66
2022/09/29 08:47:46;;;;;;;10.25;4.55;;;;;;;;;;5047737;28;20044;-54
2022/09/29 08:50:15;;;;;;;10.25;4.53;;;;;;;;;;5067078;28;20051;-58
2022/09/29 08:52:43;;;;;;;11.20;5.13;;;;;;;;;;5059845;28;20052;-57
2022/09/29 08:55:21;;;;;;;10.43;5.07;;;;;;;;;;5064829;28;20052;-59
2022/09/29 08:57:50;;;;;;;11.20;5.32;;;;;;;;;;5047678;28;20076;-58
2022/09/29 09:00:18;;;;;;;11.50;5.15;;;;;;;;;;5066857;28;20052;-59
2022/09/29 09:02:56;;;;;;;12.87;5.60;;;;;;;;;;5047325;28;20169;-59
2022/09/29 09:05:30;;;;;;;14.32;6.93;;;;;;;;;;5055975;28;20060;-63
2022/09/29 09:08:02;;;;;;;20.90;8.77;;;;;;;;;;5074361;28;20056;-63
2022/09/29 09:10:35;;;;;;;12.77;6.50;;;;;;;;;;5067034;28;20132;-62
2022/09/29 09:13:17;;;;;;;15.13;7.28;;;;;;;;;;5043139;28;20136;-62
2022/09/29 09:15:53;;;;;;;15.10;6.47;;;;;;;;;;5062437;28;20142;-63
2022/09/29 09:18:33;;;;;;;22.27;11.18;;;;;;;;;;5059900;28;20079;-60
2022/09/29 09:21:07;;;;;;;22.13;10.88;;;;;;;;;;5065691;28;20048;-59
2022/09/29 09:23:41;;;;;;;15.13;7.28;;;;;;;;;;5060019;28;20052;-64
2022/09/29 09:26:08;;;;;;;29.80;13.32;;;;;;;;;;5065890;28;20048;-63
2022/09/29 09:28:40;;;;;;;16.63;6.83;;;;;;;;;;5059692;28;20052;-65
2022/09/29 09:31:09;;;;;;;32.45;14.35;;;;;;;;;;5062738;28;20357;-60
2022/09/29 09:33:37;;;;;;;34.85;14.20;;;;;;;;;;5042916;28;20053;-59
2022/09/29 09:36:06;;;;;;;35.58;17.23;;;;;;;;;;5079962;28;20056;-62
2022/09/29 09:38:41;;;;;;;33.13;15.63;;;;;;;;;;5045913;28;20060;-62
2022/09/29 09:41:08;;;;;;;24.52;13.00;;;;;;;;;;5055891;28;20113;-65
2022/09/29 09:43:37;;;;;;;17.88;9.13;;;;;;;;;;5054258;28;20072;-64
2022/09/29 09:46:11;;;;;;;26.52;12.75;;;;;;;;;;5042567;28;20045;-56
2022/09/29 09:48:40;;;;;;;18.20;9.23;;;;;;;;;;5066139;28;20055;-64
2022/09/29 09:51:18;;;;;;;27.05;13.35;;;;;;;;;;5059086;28;20171;-62
2022/09/29 09:53:45;;;;;;;23.58;10.63;;;;;;;;;;5066049;28;20061;-61
2022/09/29 09:56:16;;;;;;;27.08;14.63;;;;;;;;;;5059118;28;20060;-65
2022/09/29 09:58:54;;;;;;;19.23;10.20;;;;;;;;;;5065898;28;20109;-62
2022/09/29 10:01:22;;;;;;;23.45;10.77;;;;;;;;;;5047550;28;20103;-59
2022/09/29 10:03:49;;;;;;;22.55;10.70;;;;;;;;;;5065822;28;20139;-62
2022/09/29 10:06:15;;;;;;;18.73;9.75;;;;;;;;;;5058842;28;20061;-66
2022/09/29 10:08:42;;;;;;;25.45;12.75;;;;;;;;;;5045663;28;20132;-65
2022/09/29 10:11:16;;;;;;;18.88;8.75;;;;;;;;;;5049108;28;20049;-54
2022/09/29 10:13:43;;;;;;;21.05;11.23;;;;;;;;;;5045851;28;20045;-65
2022/09/29 10:16:13;;;;;;;22.42;11.88;;;;;;;;;;5064345;28;20163;-58
2022/09/29 10:18:42;;;;;;;25.20;12.10;;;;;;;;;;5082171;28;20052;-62
2022/09/29 10:21:23;;;;;;;19.58;9.65;;;;;;;;;;5059002;28;20061;-62
2022/09/29 10:23:53;;;;;;;45.60;20.75;;;;;;;;;;5045533;28;20076;-53
2022/09/29 10:26:24;;;;;;;34.55;17.08;;;;;;;;;;5061867;28;20049;-59
2022/09/29 10:28:53;;;;;;;26.10;12.88;;;;;;;;;;5065832;28;20080;-58
2022/09/29 10:31:27;;;;;;;21.30;11.38;;;;;;;;;;5060118;28;20105;-64
2022/09/29 10:33:59;;;;;;;20.98;9.90;;;;;;;;;;5049809;28;20053;-62
2022/09/29 10:36:26;;;;;;;21.33;10.57;;;;;;;;;;5044874;28;20049;-62
2022/09/29 10:38:53;;;;;;;25.50;11.60;;;;;;;;;;5069641;28;20044;-53
2022/09/29 10:41:20;;;;;;;21.30;11.38;;;;;;;;;;5063551;28;20065;-61
2022/09/29 10:43:47;;;;;;;18.55;9.73;;;;;;;;;;5049625;28;20056;-59
2022/09/29 10:46:41;;;;;;;20.15;9.93;;;;;;;;;;5049081;28;20058;-61
2022/09/29 10:49:12;;;;;;;23.20;12.10;;;;;;;;;;5015947;28;20056;-58
2022/09/29 10:51:40;;;;;;;21.10;11.27;;;;;;;;;;5063241;28;20083;-56
2022/09/29 10:54:07;;;;;;;22.45;10.70;;;;;;;;;;5047798;28;20060;-63
2022/09/29 10:56:34;;;;;;;19.65;10.57;;;;;;;;;;5048794;28;20057;-54
2022/09/29 10:59:01;;;;;;;18.13;9.90;;;;;;;;;;5058903;28;20053;-51
2022/09/29 11:01:30;;;;;;;20.15;9.98;;;;;;;;;;5069335;28;20052;-52
2022/09/29 11:04:00;;;;;;;25.02;9.88;;;;;;;;;;5047577;28;20111;-56
2022/09/29 11:06:29;;;;;;;19.30;9.32;;;;;;;;;;5066000;28;20053;-54
2022/09/29 11:08:57;;;;;;;19.05;9.07;;;;;;;;;;5060053;28;20110;-62
2022/09/29 11:11:24;;;;;;;15.60;8.18;;;;;;;;;;5065482;28;20122;-62
2022/09/29 11:13:52;;;;;;;15.90;7.75;;;;;;;;;;5043192;28;20048;-61
2022/09/29 11:16:24;;;;;;;19.42;7.70;;;;;;;;;;5065167;28;20109;-64
2022/09/29 11:18:51;;;;;;;13.32;7.35;;;;;;;;;;5068167;28;20149;-52
2022/09/29 11:21:42;;;;;;;15.95;6.82;;;;;;;;;;5065175;28;20063;-53
2022/09/29 11:24:12;;;;;;;14.25;6.20;;;;;;;;;;5023110;28;20056;-60
2022/09/29 11:26:42;;;;;;;14.30;6.43;;;;;;;;;;5065102;28;20119;-61
2022/09/29 11:29:14;;;;;;;13.05;7.20;;;;;;;;;;5043328;28;20098;-56
2022/09/29 11:31:51;;;;;;;12.20;6.90;;;;;;;;;;5065577;28;20049;-58
2022/09/29 11:34:33;;;;;;;14.52;6.22;;;;;;;;;;5067784;28;20189;-57
2022/09/29 11:37:07;;;;;;;10.45;5.88;;;;;;;;;;5062910;28;20053;-59
2022/09/29 11:39:50;;;;;;;13.02;6.93;;;;;;;;;;5056040;28;20055;-56
2022/09/29 11:42:24;;;;;;;11.60;5.65;;;;;;;;;;5052121;28;20055;-51
2022/09/29 11:44:58;;;;;;;13.55;6.30;;;;;;;;;;5060771;28;20044;-61
2022/09/29 11:47:35;;;;;;;8.40;4.30;;;;;;;;;;5068333;28;20055;-60
2022/09/29 11:50:11;;;;;;;7.95;3.95;;;;;;;;;;5053960;28;20053;-62
2022/09/29 11:52:56;;;;;;;9.85;4.65;;;;;;;;;;5070914;28;20076;-57
2022/09/29 11:55:34;;;;;;;9.65;4.75;;;;;;;;;;5061391;28;20072;-61
2022/09/29 11:58:10;;;;;;;6.43;3.33;;;;;;;;;;5059001;28;20057;-60
2022/09/29 12:00:57;;;;;;;9.82;4.72;;;;;;;;;;5052557;28;20150;-61
2022/09/29 12:03:27;;;;;;;9.88;4.93;;;;;;;;;;5055601;28;20068;-58
2022/09/29 12:06:00;;;;;;;11.18;4.72;;;;;;;;;;5042662;28;20056;-64
2022/09/29 12:08:36;;;;;;;8.20;4.45;;;;;;;;;;5064166;28;20061;-57
2022/09/29 12:11:07;;;;;;;9.02;4.50;;;;;;;;;;5052197;28;20048;-52
2022/09/29 12:13:40;;;;;;;8.63;4.43;;;;;;;;;;5054662;28;20114;-58
2022/09/29 12:16:09;;;;;;;8.82;4.50;;;;;;;;;;5051331;28;20060;-63
2022/09/29 12:18:39;;;;;;;9.05;3.83;;;;;;;;;;5054725;28;20060;-58
2022/09/29 12:21:07;;;;;;;7.30;3.95;;;;;;;;;;5048705;28;20147;-60
2022/09/29 12:23:36;;;;;;;7.95;3.88;;;;;;;;;;5067385;28;20076;-61
2022/09/29 12:26:07;;;;;;;7.78;3.92;;;;;;;;;;5060076;28;20068;-61
2022/09/29 12:28:36;;;;;;;7.40;3.88;;;;;;;;;;5055157;28;20048;-58
2022/09/29 12:31:11;;;;;;;9.07;3.53;;;;;;;;;;5046224;28;20056;-58
2022/09/29 12:33:39;;;;;;;7.30;3.67;;;;;;;;;;5055019;28;20044;-61
2022/09/29 12:39:11;;;;;;;6.10;3.53;;;;;;;;;;5043257;28;20056;-61
2022/09/29 12:41:42;;;;;;;6.30;3.70;;;;;;;;;;5060307;28;20056;-55
2022/09/29 12:44:12;;;;;;;7.18;3.42;;;;;;;;;;5066634;28;20078;-57
2022/09/29 12:46:41;;;;;;;7.85;3.97;;;;;;;;;;5056961;28;20056;-57
2022/09/29 12:49:11;;;;;;;4.97;2.83;;;;;;;;;;5063496;28;20151;-59
2022/09/29 12:51:40;;;;;;;7.20;3.35;;;;;;;;;;5041955;28;20083;-56
2022/09/29 12:54:14;;;;;;;6.35;3.08;;;;;;;;;;5077334;28;20105;-54
2022/09/29 12:56:45;;;;;;;7.95;2.90;;;;;;;;;;5059733;28;20058;-54
2022/09/29 12:59:16;;;;;;;5.80;3.08;;;;;;;;;;5076875;28;20052;-55
2022/09/29 13:01:43;;;;;;;5.78;2.80;;;;;;;;;;5060211;28;20063;-58
2022/09/29 13:04:24;;;;;;;8.02;2.80;;;;;;;;;;5045211;28;20094;-61
2022/09/29 13:07:09;;;;;;;5.53;2.45;;;;;;;;;;5044400;28;20056;-58
2022/09/29 13:09:51;;;;;;;5.30;2.78;;;;;;;;;;5037985;28;20053;-57
2022/09/29 13:12:32;;;;;;;4.47;2.20;;;;;;;;;;5042477;28;20080;-58
2022/09/29 13:15:08;;;;;;;6.65;2.67;;;;;;;;;;5033141;28;20102;-53
2022/09/29 13:17:42;;;;;;;9.20;2.40;;;;;;;;;;5041981;28;20045;-55
2022/09/29 13:20:31;;;;;;;4.25;1.80;;;;;;;;;;5066454;28;20047;-59
2022/09/29 13:23:04;;;;;;;4.32;2.10;;;;;;;;;;5060077;28;20048;-57
2022/09/29 13:25:34;;;;;;;5.75;1.85;;;;;;;;;;5066310;28;20044;-62
2022/09/29 13:28:01;;;;;;;3.80;2.00;;;;;;;;;;5056191;28;20048;-63
2022/09/29 13:30:30;;;;;;;4.10;2.03;;;;;;;;;;5068525;28;20060;-63
2022/09/29 13:33:01;;;;;;;3.63;1.90;;;;;;;;;;5057889;28;20049;-55
2022/09/29 13:35:28;;;;;;;4.50;1.95;;;;;;;;;;5046358;28;20171;-58
2022/09/29 13:38:01;;;;;;;3.70;1.83;;;;;;;;;;5046348;28;20052;-58
2022/09/29 13:40:29;;;;;;;4.18;1.90;;;;;;;;;;5057435;28;20048;-65
2022/09/29 13:42:56;;;;;;;4.38;2.10;;;;;;;;;;5065810;28;20049;-53
2022/09/29 13:45:39;;;;;;;4.63;1.92;;;;;;;;;;5042952;28;20108;-66
2022/09/29 13:48:25;;;;;;;4.07;1.88;;;;;;;;;;5046755;28;20037;-55
2022/09/29 13:50:55;;;;;;;5.97;2.42;;;;;;;;;;5059354;28;20110;-58
2022/09/29 13:53:34;;;;;;;5.10;2.03;;;;;;;;;;5061025;28;20049;-56
2022/09/29 13:56:09;;;;;;;4.18;2.13;;;;;;;;;;5058052;28;20048;-61
2022/09/29 13:58:38;;;;;;;3.88;2.05;;;;;;;;;;5057317;28;20117;-52
2022/09/29 14:01:05;;;;;;;3.90;1.90;;;;;;;;;;5059977;28;20048;-60
2022/09/29 14:03:34;;;;;;;5.00;2.27;;;;;;;;;;5059601;28;20044;-57
2022/09/29 14:06:06;;;;;;;3.47;1.58;;;;;;;;;;5054227;28;20144;-59
2022/09/29 14:08:38;;;;;;;3.80;2.05;;;;;;;;;;5059205;28;20041;-62
2022/09/29 14:11:08;;;;;;;2.35;1.50;;;;;;;;;;5053955;28;20059;-60
2022/09/29 14:13:40;;;;;;;3.22;1.65;;;;;;;;;;5059066;28;20049;-54
2022/09/29 14:16:21;;;;;;;4.00;1.70;;;;;;;;;;5038460;28;20045;-60
2022/09/29 14:18:53;;;;;;;5.13;1.88;;;;;;;;;;5069940;28;20045;-55
2022/09/29 14:21:42;;;;;;;3.55;1.90;;;;;;;;;;5045696;28;20060;-62
2022/09/29 14:24:23;;;;;;;4.72;2.10;;;;;;;;;;5024305;28;20123;-62
2022/09/29 14:26:53;;;;;;;5.30;1.80;;;;;;;;;;5053791;28;20076;-53
2022/09/29 14:29:22;;;;;;;2.67;1.58;;;;;;;;;;5058881;28;20056;-59
2022/09/29 14:31:51;;;;;;;3.95;1.65;;;;;;;;;;5072698;28;20044;-56
2022/09/29 14:34:19;;;;;;;3.35;1.58;;;;;;;;;;5063052;28;20141;-59
2022/09/29 14:36:46;;;;;;;2.10;1.38;;;;;;;;;;5056014;28;20036;-59
2022/09/29 14:39:14;;;;;;;2.00;1.30;;;;;;;;;;5064026;28;20056;-55
2022/09/29 14:41:42;;;;;;;1.88;1.38;;;;;;;;;;5054759;28;20106;-58
2022/09/29 14:44:12;;;;;;;2.78;1.40;;;;;;;;;;5063652;28;20049;-60
2022/09/29 14:52:30;;;;;;;2.30;1.30;;;;;;;;;;5074028;28;20087;-58
2022/09/29 14:55:01;;;;;;;7.38;1.63;;;;;;;;;;5063533;28;20052;-58
2022/09/29 14:57:43;;;;;;;3.20;1.40;;;;;;;;;;5056740;28;20106;-63
2022/09/29 15:00:15;;;;;;;2.55;1.35;;;;;;;;;;5061790;28;20120;-55
2022/09/29 15:02:43;;;;;;;2.47;1.33;;;;;;;;;;5073209;28;20059;-54
2022/09/29 15:05:14;;;;;;;2.33;1.48;;;;;;;;;;5063573;28;20131;-54
2022/09/29 15:07:42;;;;;;;4.20;1.20;;;;;;;;;;5056976;28;20087;-63